sensor_id;sensor_type;location;lat;lon;timestamp;P1;durP1;ratioP1;P2;durP2;ratioP2
28455;SDS011;15682;56.742;38.866;2023-10-31T00:01:11;21.9;;;10.2;;
28455;SDS011;15682;56.742;38.866;2023-10-31T00:03:11;19.2;;;9.8;;
28455;SDS011;15682;56.742;38.866;2023-10-31T00:05:12;17.5;;;9.5;;
28455;SDS011;15682;56.742;38.866;2023-10-31T00:07:12;16.2;;;9.2;;
28455;SDS011;15682;56.742;38.866;2023-10-31T00:09:12;15.8;;;9.4;;
28455;SDS011;15682;56.742;38.866;2023-10-31T00:11:12;19.7;;;10.0;;
28455;SDS011;15682;56.742;38.866;2023-10-31T00:13:12;15.5;;;9.2;;
28455;SDS011;15682;56.742;38.866;2023-10-31T00:15:12;16.2;;;9.0;;
28455;SDS011;15682;56.742;38.866;2023-10-31T00:17:12;17.8;;;9.2;;
28455;SDS011;15682;56.742;38.866;2023-10-31T00:19:12;16.2;;;9.6;;
28455;SDS011;15682;56.742;38.866;2023-10-31T00:21:12;19.5;;;9.2;;
28455;SDS011;15682;56.742;38.866;2023-10-31T00:23:12;15.8;;;7.8;;
28455;SDS011;15682;56.742;38.866;2023-10-31T00:25:12;20.2;;;11.1;;
28455;SDS011;15682;56.742;38.866;2023-10-31T00:27:12;12.9;;;7.3;;
28455;SDS011;15682;56.742;38.866;2023-10-31T00:29:12;12.3;;;6.7;;
28455;SDS011;15682;56.742;38.866;2023-10-31T00:31:12;10.6;;;6.1;;
28455;SDS011;15682;56.742;38.866;2023-10-31T00:33:12;10.9;;;5.6;;
28455;SDS011;15682;56.742;38.866;2023-10-31T00:35:12;8.0;;;4.2;;
28455;SDS011;15682;56.742;38.866;2023-10-31T00:37:12;6.8;;;3.4;;
28455;SDS011;15682;56.742;38.866;2023-10-31T00:39:12;5.5;;;2.9;;
28455;SDS011;15682;56.742;38.866;2023-10-31T00:41:12;6.5;;;2.7;;
28455;SDS011;15682;56.742;38.866;2023-10-31T00:43:12;3.8;;;2.4;;
28455;SDS011;15682;56.742;38.866;2023-10-31T00:45:13;4.5;;;2.7;;
28455;SDS011;15682;56.742;38.866;2023-10-31T00:47:13;6.5;;;3.1;;
28455;SDS011;15682;56.742;38.866;2023-10-31T00:49:13;5.0;;;2.7;;
28455;SDS011;15682;56.742;38.866;2023-10-31T00:51:13;5.6;;;2.5;;
28455;SDS011;15682;56.742;38.866;2023-10-31T00:53:13;4.1;;;2.3;;
28455;SDS011;15682;56.742;38.866;2023-10-31T00:55:13;5.8;;;2.3;;
28455;SDS011;15682;56.742;38.866;2023-10-31T00:57:13;4.4;;;1.7;;
28455;SDS011;15682;56.742;38.866;2023-10-31T00:59:13;4.4;;;2.0;;
28455;SDS011;15682;56.742;38.866;2023-10-31T01:01:13;3.9;;;1.7;;
28455;SDS011;15682;56.742;38.866;2023-10-31T01:03:13;2.8;;;1.7;;
28455;SDS011;15682;56.742;38.866;2023-10-31T01:05:13;2.7;;;1.8;;
28455;SDS011;15682;56.742;38.866;2023-10-31T01:07:13;3.0;;;1.8;;
28455;SDS011;15682;56.742;38.866;2023-10-31T01:09:13;4.1;;;2.0;;
28455;SDS011;15682;56.742;38.866;2023-10-31T01:11:13;2.6;;;1.9;;
28455;SDS011;15682;56.742;38.866;2023-10-31T01:13:13;3.6;;;2.1;;
28455;SDS011;15682;56.742;38.866;2023-10-31T01:15:13;3.2;;;2.2;;
28455;SDS011;15682;56.742;38.866;2023-10-31T01:17:13;5.3;;;2.5;;
28455;SDS011;15682;56.742;38.866;2023-10-31T01:19:13;5.3;;;2.5;;
28455;SDS011;15682;56.742;38.866;2023-10-31T01:21:13;4.9;;;2.3;;
28455;SDS011;15682;56.742;38.866;2023-10-31T01:23:13;4.0;;;2.5;;
28455;SDS011;15682;56.742;38.866;2023-10-31T01:25:13;3.8;;;2.3;;
28455;SDS011;15682;56.742;38.866;2023-10-31T01:27:13;3.9;;;2.5;;
28455;SDS011;15682;56.742;38.866;2023-10-31T01:29:13;5.5;;;2.5;;
28455;SDS011;15682;56.742;38.866;2023-10-31T01:31:13;4.4;;;2.7;;
28455;SDS011;15682;56.742;38.866;2023-10-31T01:33:14;5.6;;;2.7;;
28455;SDS011;15682;56.742;38.866;2023-10-31T01:35:14;4.3;;;2.9;;
28455;SDS011;15682;56.742;38.866;2023-10-31T01:37:14;5.5;;;3.0;;
28455;SDS011;15682;56.742;38.866;2023-10-31T01:39:14;6.8;;;3.2;;
28455;SDS011;15682;56.742;38.866;2023-10-31T01:41:14;5.1;;;3.0;;
28455;SDS011;15682;56.742;38.866;2023-10-31T01:43:17;5.3;;;3.0;;
28455;SDS011;15682;56.742;38.866;2023-10-31T01:45:14;4.5;;;3.1;;
28455;SDS011;15682;56.742;38.866;2023-10-31T01:47:14;5.0;;;3.2;;
28455;SDS011;15682;56.742;38.866;2023-10-31T01:49:14;6.8;;;3.5;;
28455;SDS011;15682;56.742;38.866;2023-10-31T01:51:14;4.6;;;3.2;;
28455;SDS011;15682;56.742;38.866;2023-10-31T01:53:14;6.0;;;3.5;;
28455;SDS011;15682;56.742;38.866;2023-10-31T01:55:14;4.8;;;3.0;;
28455;SDS011;15682;56.742;38.866;2023-10-31T01:57:14;4.7;;;2.7;;
28455;SDS011;15682;56.742;38.866;2023-10-31T01:59:14;5.8;;;2.6;;
28455;SDS011;15682;56.742;38.866;2023-10-31T02:01:14;5.8;;;2.7;;
28455;SDS011;15682;56.742;38.866;2023-10-31T02:03:14;5.2;;;2.4;;
28455;SDS011;15682;56.742;38.866;2023-10-31T02:05:14;3.7;;;2.3;;
28455;SDS011;15682;56.742;38.866;2023-10-31T02:07:14;3.9;;;2.4;;
28455;SDS011;15682;56.742;38.866;2023-10-31T02:09:14;5.1;;;1.9;;
28455;SDS011;15682;56.742;38.866;2023-10-31T02:11:14;3.6;;;1.7;;
28455;SDS011;15682;56.742;38.866;2023-10-31T02:13:15;2.9;;;1.8;;
28455;SDS011;15682;56.742;38.866;2023-10-31T02:15:14;3.2;;;1.6;;
28455;SDS011;15682;56.742;38.866;2023-10-31T02:17:14;3.2;;;1.7;;
28455;SDS011;15682;56.742;38.866;2023-10-31T02:19:15;2.7;;;1.6;;
28455;SDS011;15682;56.742;38.866;2023-10-31T02:21:15;1.9;;;1.4;;
28455;SDS011;15682;56.742;38.866;2023-10-31T02:23:15;2.6;;;1.4;;
28455;SDS011;15682;56.742;38.866;2023-10-31T02:25:15;2.6;;;1.5;;
28455;SDS011;15682;56.742;38.866;2023-10-31T02:27:15;2.2;;;1.2;;
28455;SDS011;15682;56.742;38.866;2023-10-31T02:29:15;2.7;;;1.4;;
28455;SDS011;15682;56.742;38.866;2023-10-31T02:31:15;3.0;;;1.4;;
28455;SDS011;15682;56.742;38.866;2023-10-31T02:33:15;1.9;;;1.2;;
28455;SDS011;15682;56.742;38.866;2023-10-31T02:35:15;1.9;;;1.3;;
28455;SDS011;15682;56.742;38.866;2023-10-31T02:37:15;2.5;;;1.3;;
28455;SDS011;15682;56.742;38.866;2023-10-31T02:39:15;2.3;;;1.4;;
28455;SDS011;15682;56.742;38.866;2023-10-31T02:41:15;4.3;;;1.4;;
28455;SDS011;15682;56.742;38.866;2023-10-31T02:43:15;2.6;;;1.4;;
28455;SDS011;15682;56.742;38.866;2023-10-31T02:45:15;3.5;;;1.5;;
28455;SDS011;15682;56.742;38.866;2023-10-31T02:47:15;3.2;;;1.7;;
28455;SDS011;15682;56.742;38.866;2023-10-31T02:49:15;3.3;;;1.6;;
28455;SDS011;15682;56.742;38.866;2023-10-31T02:51:15;4.5;;;1.9;;
28455;SDS011;15682;56.742;38.866;2023-10-31T02:53:15;4.4;;;2.1;;
28455;SDS011;15682;56.742;38.866;2023-10-31T02:55:15;4.0;;;1.8;;
28455;SDS011;15682;56.742;38.866;2023-10-31T02:57:15;3.9;;;2.1;;
28455;SDS011;15682;56.742;38.866;2023-10-31T02:59:15;4.7;;;2.3;;
28455;SDS011;15682;56.742;38.866;2023-10-31T03:01:15;4.5;;;2.5;;
28455;SDS011;15682;56.742;38.866;2023-10-31T03:03:15;3.3;;;2.2;;
28455;SDS011;15682;56.742;38.866;2023-10-31T03:05:16;3.9;;;2.3;;
28455;SDS011;15682;56.742;38.866;2023-10-31T03:07:15;6.7;;;2.6;;
28455;SDS011;15682;56.742;38.866;2023-10-31T03:09:15;4.4;;;2.6;;
28455;SDS011;15682;56.742;38.866;2023-10-31T03:11:23;5.5;;;2.8;;
28455;SDS011;15682;56.742;38.866;2023-10-31T03:13:16;5.7;;;2.9;;
28455;SDS011;15682;56.742;38.866;2023-10-31T03:15:16;4.7;;;2.8;;
28455;SDS011;15682;56.742;38.866;2023-10-31T03:17:16;7.0;;;3.2;;
28455;SDS011;15682;56.742;38.866;2023-10-31T03:19:16;6.1;;;3.4;;
28455;SDS011;15682;56.742;38.866;2023-10-31T03:21:16;4.9;;;3.4;;
28455;SDS011;15682;56.742;38.866;2023-10-31T03:23:16;6.1;;;3.4;;
28455;SDS011;15682;56.742;38.866;2023-10-31T03:25:16;7.2;;;3.5;;
28455;SDS011;15682;56.742;38.866;2023-10-31T03:27:16;7.5;;;3.8;;
28455;SDS011;15682;56.742;38.866;2023-10-31T03:29:16;6.5;;;3.5;;
28455;SDS011;15682;56.742;38.866;2023-10-31T03:31:16;8.4;;;4.0;;
28455;SDS011;15682;56.742;38.866;2023-10-31T03:33:16;9.1;;;4.0;;
28455;SDS011;15682;56.742;38.866;2023-10-31T03:35:16;10.0;;;4.5;;
28455;SDS011;15682;56.742;38.866;2023-10-31T03:37:16;9.5;;;4.0;;
28455;SDS011;15682;56.742;38.866;2023-10-31T03:39:16;9.8;;;4.7;;
28455;SDS011;15682;56.742;38.866;2023-10-31T03:41:16;9.9;;;4.6;;
28455;SDS011;15682;56.742;38.866;2023-10-31T03:43:16;10.4;;;4.7;;
28455;SDS011;15682;56.742;38.866;2023-10-31T03:45:16;10.4;;;4.7;;
28455;SDS011;15682;56.742;38.866;2023-10-31T03:47:16;15.3;;;4.9;;
28455;SDS011;15682;56.742;38.866;2023-10-31T03:49:16;12.2;;;5.2;;
28455;SDS011;15682;56.742;38.866;2023-10-31T03:51:16;12.6;;;4.8;;
28455;SDS011;15682;56.742;38.866;2023-10-31T03:53:16;12.6;;;5.2;;
28455;SDS011;15682;56.742;38.866;2023-10-31T03:55:16;12.9;;;5.0;;
28455;SDS011;15682;56.742;38.866;2023-10-31T03:57:16;12.6;;;5.1;;
28455;SDS011;15682;56.742;38.866;2023-10-31T03:59:16;16.9;;;5.1;;
28455;SDS011;15682;56.742;38.866;2023-10-31T04:01:16;13.5;;;5.2;;
28455;SDS011;15682;56.742;38.866;2023-10-31T04:03:16;12.2;;;5.2;;
28455;SDS011;15682;56.742;38.866;2023-10-31T04:05:17;16.1;;;5.8;;
28455;SDS011;15682;56.742;38.866;2023-10-31T04:07:17;18.5;;;5.5;;
28455;SDS011;15682;56.742;38.866;2023-10-31T04:09:17;18.8;;;6.0;;
28455;SDS011;15682;56.742;38.866;2023-10-31T04:11:17;19.9;;;5.6;;
28455;SDS011;15682;56.742;38.866;2023-10-31T04:13:17;13.7;;;5.5;;
28455;SDS011;15682;56.742;38.866;2023-10-31T04:15:17;23.2;;;6.6;;
28455;SDS011;15682;56.742;38.866;2023-10-31T04:17:17;16.5;;;5.4;;
28455;SDS011;15682;56.742;38.866;2023-10-31T04:19:17;15.7;;;6.2;;
28455;SDS011;15682;56.742;38.866;2023-10-31T04:21:17;24.3;;;6.6;;
28455;SDS011;15682;56.742;38.866;2023-10-31T04:23:17;17.8;;;6.2;;
28455;SDS011;15682;56.742;38.866;2023-10-31T04:25:17;14.9;;;5.7;;
28455;SDS011;15682;56.742;38.866;2023-10-31T04:27:17;14.9;;;6.1;;
28455;SDS011;15682;56.742;38.866;2023-10-31T04:29:17;15.8;;;6.1;;
28455;SDS011;15682;56.742;38.866;2023-10-31T04:31:17;20.9;;;6.6;;
28455;SDS011;15682;56.742;38.866;2023-10-31T04:33:17;13.7;;;5.2;;
28455;SDS011;15682;56.742;38.866;2023-10-31T04:35:17;16.0;;;5.6;;
28455;SDS011;15682;56.742;38.866;2023-10-31T04:37:17;14.3;;;5.2;;
28455;SDS011;15682;56.742;38.866;2023-10-31T04:39:17;14.2;;;5.5;;
28455;SDS011;15682;56.742;38.866;2023-10-31T04:41:17;16.1;;;5.3;;
28455;SDS011;15682;56.742;38.866;2023-10-31T04:43:17;21.2;;;6.7;;
28455;SDS011;15682;56.742;38.866;2023-10-31T04:45:17;28.7;;;7.1;;
28455;SDS011;15682;56.742;38.866;2023-10-31T04:47:17;27.7;;;6.9;;
28455;SDS011;15682;56.742;38.866;2023-10-31T04:49:17;33.1;;;7.4;;
28455;SDS011;15682;56.742;38.866;2023-10-31T04:51:17;14.2;;;5.2;;
28455;SDS011;15682;56.742;38.866;2023-10-31T04:53:17;13.2;;;5.1;;
28455;SDS011;15682;56.742;38.866;2023-10-31T04:55:17;30.6;;;7.2;;
28455;SDS011;15682;56.742;38.866;2023-10-31T04:57:17;20.8;;;5.3;;
28455;SDS011;15682;56.742;38.866;2023-10-31T04:59:17;27.0;;;6.5;;
28455;SDS011;15682;56.742;38.866;2023-10-31T05:01:17;30.5;;;6.8;;
28455;SDS011;15682;56.742;38.866;2023-10-31T05:03:17;18.0;;;6.0;;
28455;SDS011;15682;56.742;38.866;2023-10-31T05:05:17;18.1;;;5.7;;
28455;SDS011;15682;56.742;38.866;2023-10-31T05:07:17;12.7;;;5.1;;
28455;SDS011;15682;56.742;38.866;2023-10-31T05:09:17;13.0;;;5.2;;
28455;SDS011;15682;56.742;38.866;2023-10-31T05:11:18;20.6;;;6.4;;
28455;SDS011;15682;56.742;38.866;2023-10-31T05:13:17;16.6;;;5.4;;
28455;SDS011;15682;56.742;38.866;2023-10-31T05:15:17;22.3;;;6.3;;
28455;SDS011;15682;56.742;38.866;2023-10-31T05:17:17;23.5;;;6.5;;
28455;SDS011;15682;56.742;38.866;2023-10-31T05:19:18;18.3;;;6.1;;
28455;SDS011;15682;56.742;38.866;2023-10-31T05:21:18;19.7;;;5.5;;
28455;SDS011;15682;56.742;38.866;2023-10-31T05:23:18;13.9;;;5.3;;
28455;SDS011;15682;56.742;38.866;2023-10-31T05:25:18;18.0;;;5.4;;
28455;SDS011;15682;56.742;38.866;2023-10-31T05:27:18;14.8;;;5.4;;
28455;SDS011;15682;56.742;38.866;2023-10-31T05:29:18;12.9;;;5.1;;
28455;SDS011;15682;56.742;38.866;2023-10-31T05:31:18;16.5;;;5.5;;
28455;SDS011;15682;56.742;38.866;2023-10-31T05:33:18;16.1;;;5.2;;
28455;SDS011;15682;56.742;38.866;2023-10-31T05:35:18;11.4;;;4.8;;
28455;SDS011;15682;56.742;38.866;2023-10-31T05:37:18;9.0;;;4.9;;
28455;SDS011;15682;56.742;38.866;2023-10-31T05:39:18;9.6;;;4.7;;
28455;SDS011;15682;56.742;38.866;2023-10-31T05:41:18;7.6;;;4.4;;
28455;SDS011;15682;56.742;38.866;2023-10-31T05:43:18;8.6;;;4.5;;
28455;SDS011;15682;56.742;38.866;2023-10-31T05:45:18;8.7;;;4.3;;
28455;SDS011;15682;56.742;38.866;2023-10-31T05:47:18;8.5;;;4.4;;
28455;SDS011;15682;56.742;38.866;2023-10-31T05:49:18;6.1;;;4.1;;
28455;SDS011;15682;56.742;38.866;2023-10-31T05:51:18;8.4;;;4.3;;
28455;SDS011;15682;56.742;38.866;2023-10-31T05:53:18;8.4;;;4.1;;
28455;SDS011;15682;56.742;38.866;2023-10-31T05:55:18;20.4;;;5.2;;
28455;SDS011;15682;56.742;38.866;2023-10-31T05:57:18;18.6;;;5.5;;
28455;SDS011;15682;56.742;38.866;2023-10-31T05:59:18;26.4;;;6.4;;
28455;SDS011;15682;56.742;38.866;2023-10-31T06:01:18;24.4;;;6.0;;
28455;SDS011;15682;56.742;38.866;2023-10-31T06:03:18;15.2;;;5.3;;
28455;SDS011;15682;56.742;38.866;2023-10-31T06:05:18;20.5;;;5.8;;
28455;SDS011;15682;56.742;38.866;2023-10-31T06:07:18;20.8;;;5.6;;
28455;SDS011;15682;56.742;38.866;2023-10-31T06:09:19;28.3;;;6.2;;
28455;SDS011;15682;56.742;38.866;2023-10-31T06:11:19;24.9;;;6.4;;
28455;SDS011;15682;56.742;38.866;2023-10-31T06:13:19;18.8;;;5.4;;
28455;SDS011;15682;56.742;38.866;2023-10-31T06:15:19;11.4;;;4.5;;
28455;SDS011;15682;56.742;38.866;2023-10-31T06:17:19;27.7;;;6.5;;
28455;SDS011;15682;56.742;38.866;2023-10-31T06:19:19;10.0;;;4.2;;
28455;SDS011;15682;56.742;38.866;2023-10-31T06:21:19;11.8;;;4.2;;
28455;SDS011;15682;56.742;38.866;2023-10-31T06:23:19;8.5;;;3.7;;
28455;SDS011;15682;56.742;38.866;2023-10-31T06:25:19;6.0;;;3.4;;
28455;SDS011;15682;56.742;38.866;2023-10-31T06:27:19;6.1;;;3.3;;
28455;SDS011;15682;56.742;38.866;2023-10-31T06:29:19;5.9;;;3.1;;
28455;SDS011;15682;56.742;38.866;2023-10-31T06:31:19;6.2;;;2.9;;
28455;SDS011;15682;56.742;38.866;2023-10-31T06:33:19;15.5;;;3.6;;
28455;SDS011;15682;56.742;38.866;2023-10-31T06:35:19;7.3;;;3.2;;
28455;SDS011;15682;56.742;38.866;2023-10-31T06:37:19;6.7;;;3.0;;
28455;SDS011;15682;56.742;38.866;2023-10-31T06:39:19;6.5;;;2.5;;
28455;SDS011;15682;56.742;38.866;2023-10-31T06:41:19;7.5;;;2.4;;
28455;SDS011;15682;56.742;38.866;2023-10-31T06:43:19;15.7;;;3.6;;
28455;SDS011;15682;56.742;38.866;2023-10-31T06:45:19;5.8;;;2.5;;
28455;SDS011;15682;56.742;38.866;2023-10-31T06:47:19;6.0;;;2.6;;
28455;SDS011;15682;56.742;38.866;2023-10-31T06:49:19;5.9;;;2.5;;
28455;SDS011;15682;56.742;38.866;2023-10-31T06:51:19;7.5;;;2.6;;
28455;SDS011;15682;56.742;38.866;2023-10-31T06:53:20;11.9;;;5.0;;
28455;SDS011;15682;56.742;38.866;2023-10-31T06:55:20;9.2;;;3.2;;
28455;SDS011;15682;56.742;38.866;2023-10-31T06:57:20;10.9;;;4.1;;
28455;SDS011;15682;56.742;38.866;2023-10-31T06:59:20;5.6;;;3.1;;
28455;SDS011;15682;56.742;38.866;2023-10-31T07:01:20;8.1;;;2.8;;
28455;SDS011;15682;56.742;38.866;2023-10-31T07:03:20;9.4;;;3.0;;
28455;SDS011;15682;56.742;38.866;2023-10-31T07:05:20;6.8;;;2.7;;
28455;SDS011;15682;56.742;38.866;2023-10-31T07:07:20;7.4;;;2.7;;
28455;SDS011;15682;56.742;38.866;2023-10-31T07:09:20;5.1;;;2.6;;
28455;SDS011;15682;56.742;38.866;2023-10-31T07:11:20;11.4;;;2.8;;
28455;SDS011;15682;56.742;38.866;2023-10-31T07:13:20;7.9;;;2.9;;
28455;SDS011;15682;56.742;38.866;2023-10-31T07:15:20;7.5;;;2.8;;
28455;SDS011;15682;56.742;38.866;2023-10-31T07:17:20;5.8;;;2.8;;
28455;SDS011;15682;56.742;38.866;2023-10-31T07:19:20;5.0;;;2.4;;
28455;SDS011;15682;56.742;38.866;2023-10-31T07:21:20;5.7;;;2.3;;
28455;SDS011;15682;56.742;38.866;2023-10-31T07:23:20;4.4;;;2.1;;
28455;SDS011;15682;56.742;38.866;2023-10-31T07:25:20;6.3;;;2.7;;
28455;SDS011;15682;56.742;38.866;2023-10-31T07:27:20;6.0;;;2.6;;
28455;SDS011;15682;56.742;38.866;2023-10-31T07:29:20;7.8;;;3.3;;
28455;SDS011;15682;56.742;38.866;2023-10-31T07:31:21;6.9;;;3.2;;
28455;SDS011;15682;56.742;38.866;2023-10-31T07:33:20;9.3;;;3.1;;
28455;SDS011;15682;56.742;38.866;2023-10-31T07:35:20;6.2;;;3.3;;
28455;SDS011;15682;56.742;38.866;2023-10-31T07:37:20;21.0;;;9.0;;
28455;SDS011;15682;56.742;38.866;2023-10-31T07:39:20;19.2;;;7.0;;
28455;SDS011;15682;56.742;38.866;2023-10-31T07:41:21;13.5;;;5.0;;
28455;SDS011;15682;56.742;38.866;2023-10-31T07:43:21;9.2;;;4.5;;
28455;SDS011;15682;56.742;38.866;2023-10-31T07:45:21;7.0;;;3.7;;
28455;SDS011;15682;56.742;38.866;2023-10-31T07:47:21;6.7;;;3.0;;
28455;SDS011;15682;56.742;38.866;2023-10-31T07:49:21;9.6;;;3.3;;
28455;SDS011;15682;56.742;38.866;2023-10-31T07:51:21;10.8;;;2.9;;
28455;SDS011;15682;56.742;38.866;2023-10-31T07:53:21;4.9;;;2.8;;
28455;SDS011;15682;56.742;38.866;2023-10-31T07:55:21;6.2;;;2.8;;
28455;SDS011;15682;56.742;38.866;2023-10-31T07:57:21;5.5;;;2.6;;
28455;SDS011;15682;56.742;38.866;2023-10-31T07:59:21;12.1;;;3.3;;
28455;SDS011;15682;56.742;38.866;2023-10-31T08:01:21;11.2;;;3.3;;
28455;SDS011;15682;56.742;38.866;2023-10-31T08:03:21;7.0;;;2.9;;
28455;SDS011;15682;56.742;38.866;2023-10-31T08:05:21;14.4;;;3.6;;
28455;SDS011;15682;56.742;38.866;2023-10-31T08:07:21;7.7;;;2.8;;
28455;SDS011;15682;56.742;38.866;2023-10-31T08:09:21;6.3;;;2.5;;
28455;SDS011;15682;56.742;38.866;2023-10-31T08:11:21;10.4;;;2.8;;
28455;SDS011;15682;56.742;38.866;2023-10-31T08:13:21;9.6;;;3.5;;
28455;SDS011;15682;56.742;38.866;2023-10-31T08:15:22;10.0;;;3.1;;
28455;SDS011;15682;56.742;38.866;2023-10-31T08:17:22;7.3;;;3.1;;
28455;SDS011;15682;56.742;38.866;2023-10-31T08:19:22;8.2;;;3.5;;
28455;SDS011;15682;56.742;38.866;2023-10-31T08:21:22;10.6;;;4.5;;
28455;SDS011;15682;56.742;38.866;2023-10-31T08:23:22;15.6;;;6.6;;
28455;SDS011;15682;56.742;38.866;2023-10-31T08:25:22;15.0;;;7.2;;
28455;SDS011;15682;56.742;38.866;2023-10-31T08:27:22;16.5;;;6.7;;
28455;SDS011;15682;56.742;38.866;2023-10-31T08:29:22;14.8;;;6.4;;
28455;SDS011;15682;56.742;38.866;2023-10-31T08:31:22;13.3;;;6.1;;
28455;SDS011;15682;56.742;38.866;2023-10-31T08:33:22;11.7;;;5.9;;
28455;SDS011;15682;56.742;38.866;2023-10-31T08:35:22;10.7;;;5.6;;
28455;SDS011;15682;56.742;38.866;2023-10-31T08:37:22;11.8;;;4.8;;
28455;SDS011;15682;56.742;38.866;2023-10-31T08:39:22;19.8;;;5.3;;
28455;SDS011;15682;56.742;38.866;2023-10-31T08:41:22;15.0;;;5.5;;
28455;SDS011;15682;56.742;38.866;2023-10-31T08:43:23;13.7;;;6.2;;
28455;SDS011;15682;56.742;38.866;2023-10-31T08:45:23;14.7;;;5.8;;
28455;SDS011;15682;56.742;38.866;2023-10-31T08:47:23;11.5;;;5.1;;
28455;SDS011;15682;56.742;38.866;2023-10-31T08:49:23;12.4;;;5.0;;
28455;SDS011;15682;56.742;38.866;2023-10-31T08:51:23;13.2;;;5.1;;
28455;SDS011;15682;56.742;38.866;2023-10-31T08:53:23;17.3;;;5.4;;
28455;SDS011;15682;56.742;38.866;2023-10-31T08:55:23;19.4;;;6.0;;
28455;SDS011;15682;56.742;38.866;2023-10-31T08:57:23;17.2;;;6.2;;
28455;SDS011;15682;56.742;38.866;2023-10-31T08:59:23;16.8;;;6.0;;
28455;SDS011;15682;56.742;38.866;2023-10-31T09:01:23;21.5;;;6.8;;
28455;SDS011;15682;56.742;38.866;2023-10-31T09:03:23;32.1;;;7.4;;
28455;SDS011;15682;56.742;38.866;2023-10-31T09:05:23;16.4;;;6.5;;
28455;SDS011;15682;56.742;38.866;2023-10-31T09:07:23;18.2;;;6.8;;
28455;SDS011;15682;56.742;38.866;2023-10-31T09:09:23;17.1;;;7.3;;
28455;SDS011;15682;56.742;38.866;2023-10-31T09:11:24;20.0;;;7.7;;
28455;SDS011;15682;56.742;38.866;2023-10-31T09:13:24;15.9;;;7.3;;
28455;SDS011;15682;56.742;38.866;2023-10-31T09:15:24;27.5;;;8.4;;
28455;SDS011;15682;56.742;38.866;2023-10-31T09:17:24;20.6;;;7.8;;
28455;SDS011;15682;56.742;38.866;2023-10-31T09:19:24;22.5;;;7.8;;
28455;SDS011;15682;56.742;38.866;2023-10-31T09:21:24;17.7;;;7.8;;
28455;SDS011;15682;56.742;38.866;2023-10-31T09:23:24;21.4;;;8.5;;
28455;SDS011;15682;56.742;38.866;2023-10-31T09:25:24;23.6;;;9.3;;
28455;SDS011;15682;56.742;38.866;2023-10-31T09:27:24;20.6;;;8.6;;
28455;SDS011;15682;56.742;38.866;2023-10-31T09:29:24;44.7;;;12.7;;
28455;SDS011;15682;56.742;38.866;2023-10-31T09:31:24;25.1;;;9.7;;
28455;SDS011;15682;56.742;38.866;2023-10-31T09:33:24;24.9;;;9.9;;
28455;SDS011;15682;56.742;38.866;2023-10-31T09:35:25;22.9;;;9.7;;
28455;SDS011;15682;56.742;38.866;2023-10-31T09:37:25;21.8;;;9.4;;
28455;SDS011;15682;56.742;38.866;2023-10-31T09:39:25;26.1;;;9.3;;
28455;SDS011;15682;56.742;38.866;2023-10-31T09:41:25;48.3;;;12.0;;
28455;SDS011;15682;56.742;38.866;2023-10-31T09:43:25;24.9;;;10.1;;
28455;SDS011;15682;56.742;38.866;2023-10-31T09:45:25;24.4;;;10.1;;
28455;SDS011;15682;56.742;38.866;2023-10-31T09:47:25;25.6;;;9.9;;
28455;SDS011;15682;56.742;38.866;2023-10-31T09:49:26;29.3;;;10.6;;
28455;SDS011;15682;56.742;38.866;2023-10-31T09:51:25;32.3;;;10.5;;
28455;SDS011;15682;56.742;38.866;2023-10-31T09:53:25;26.7;;;11.0;;
28455;SDS011;15682;56.742;38.866;2023-10-31T09:55:25;33.5;;;11.1;;
28455;SDS011;15682;56.742;38.866;2023-10-31T09:57:25;26.7;;;10.3;;
28455;SDS011;15682;56.742;38.866;2023-10-31T09:59:26;26.8;;;10.3;;
28455;SDS011;15682;56.742;38.866;2023-10-31T10:01:26;24.0;;;10.6;;
28455;SDS011;15682;56.742;38.866;2023-10-31T10:03:26;29.2;;;11.1;;
28455;SDS011;15682;56.742;38.866;2023-10-31T10:05:26;37.0;;;12.0;;
28455;SDS011;15682;56.742;38.866;2023-10-31T10:07:26;29.6;;;11.0;;
28455;SDS011;15682;56.742;38.866;2023-10-31T10:09:26;28.7;;;10.8;;
28455;SDS011;15682;56.742;38.866;2023-10-31T10:11:26;30.8;;;12.1;;
28455;SDS011;15682;56.742;38.866;2023-10-31T10:13:26;33.1;;;12.9;;
28455;SDS011;15682;56.742;38.866;2023-10-31T10:15:26;33.5;;;13.7;;
28455;SDS011;15682;56.742;38.866;2023-10-31T10:17:26;35.1;;;13.6;;
28455;SDS011;15682;56.742;38.866;2023-10-31T10:19:26;34.8;;;14.0;;
28455;SDS011;15682;56.742;38.866;2023-10-31T10:21:26;27.9;;;12.5;;
28455;SDS011;15682;56.742;38.866;2023-10-31T10:23:27;43.2;;;15.9;;
28455;SDS011;15682;56.742;38.866;2023-10-31T10:25:27;32.3;;;15.5;;
28455;SDS011;15682;56.742;38.866;2023-10-31T10:27:27;35.0;;;16.0;;
28455;SDS011;15682;56.742;38.866;2023-10-31T10:29:27;38.1;;;14.8;;
28455;SDS011;15682;56.742;38.866;2023-10-31T10:31:27;30.1;;;14.0;;
28455;SDS011;15682;56.742;38.866;2023-10-31T10:33:27;33.3;;;14.4;;
28455;SDS011;15682;56.742;38.866;2023-10-31T10:35:27;44.6;;;14.0;;
28455;SDS011;15682;56.742;38.866;2023-10-31T10:37:27;34.4;;;13.4;;
28455;SDS011;15682;56.742;38.866;2023-10-31T10:39:27;38.3;;;14.8;;
28455;SDS011;15682;56.742;38.866;2023-10-31T10:41:27;39.0;;;15.5;;
28455;SDS011;15682;56.742;38.866;2023-10-31T10:43:27;38.9;;;15.9;;
28455;SDS011;15682;56.742;38.866;2023-10-31T10:45:27;29.7;;;14.6;;
28455;SDS011;15682;56.742;38.866;2023-10-31T10:47:28;32.7;;;15.7;;
28455;SDS011;15682;56.742;38.866;2023-10-31T10:49:28;33.0;;;15.7;;
28455;SDS011;15682;56.742;38.866;2023-10-31T10:51:28;29.2;;;14.3;;
28455;SDS011;15682;56.742;38.866;2023-10-31T10:53:29;29.1;;;13.8;;
28455;SDS011;15682;56.742;38.866;2023-10-31T10:55:28;26.3;;;12.9;;
28455;SDS011;15682;56.742;38.866;2023-10-31T10:57:31;24.5;;;11.9;;
28455;SDS011;15682;56.742;38.866;2023-10-31T10:59:30;24.6;;;12.3;;
28455;SDS011;15682;56.742;38.866;2023-10-31T11:01:28;22.0;;;11.9;;
28455;SDS011;15682;56.742;38.866;2023-10-31T11:03:28;25.3;;;11.8;;
28455;SDS011;15682;56.742;38.866;2023-10-31T11:05:28;21.9;;;11.9;;
28455;SDS011;15682;56.742;38.866;2023-10-31T11:07:28;25.4;;;12.9;;
28455;SDS011;15682;56.742;38.866;2023-10-31T11:09:29;21.6;;;10.6;;
28455;SDS011;15682;56.742;38.866;2023-10-31T11:11:28;20.5;;;10.5;;
28455;SDS011;15682;56.742;38.866;2023-10-31T11:13:29;21.6;;;10.8;;
28455;SDS011;15682;56.742;38.866;2023-10-31T11:15:29;19.4;;;10.4;;
28455;SDS011;15682;56.742;38.866;2023-10-31T11:17:30;21.5;;;11.4;;
28455;SDS011;15682;56.742;38.866;2023-10-31T11:19:29;26.1;;;12.3;;
28455;SDS011;15682;56.742;38.866;2023-10-31T11:21:29;24.8;;;13.1;;
28455;SDS011;15682;56.742;38.866;2023-10-31T11:23:29;26.7;;;14.4;;
28455;SDS011;15682;56.742;38.866;2023-10-31T11:25:29;31.0;;;14.9;;
28455;SDS011;15682;56.742;38.866;2023-10-31T11:27:29;31.5;;;14.8;;
28455;SDS011;15682;56.742;38.866;2023-10-31T11:29:30;30.8;;;14.7;;
28455;SDS011;15682;56.742;38.866;2023-10-31T11:31:30;25.9;;;13.9;;
28455;SDS011;15682;56.742;38.866;2023-10-31T11:33:29;28.2;;;13.4;;
28455;SDS011;15682;56.742;38.866;2023-10-31T11:35:30;25.9;;;12.6;;
28455;SDS011;15682;56.742;38.866;2023-10-31T11:37:31;22.9;;;11.9;;
28455;SDS011;15682;56.742;38.866;2023-10-31T11:39:30;26.0;;;11.3;;
28455;SDS011;15682;56.742;38.866;2023-10-31T11:41:30;24.0;;;11.9;;
28455;SDS011;15682;56.742;38.866;2023-10-31T11:45:32;20.2;;;10.4;;
28455;SDS011;15682;56.742;38.866;2023-10-31T11:47:44;19.4;;;10.9;;
28455;SDS011;15682;56.742;38.866;2023-10-31T11:51:30;22.7;;;10.9;;
28455;SDS011;15682;56.742;38.866;2023-10-31T11:53:30;19.9;;;9.2;;
28455;SDS011;15682;56.742;38.866;2023-10-31T11:55:31;19.0;;;9.8;;
28455;SDS011;15682;56.742;38.866;2023-10-31T11:57:31;16.0;;;9.0;;
28455;SDS011;15682;56.742;38.866;2023-10-31T11:59:35;18.5;;;9.5;;
28455;SDS011;15682;56.742;38.866;2023-10-31T12:01:31;16.8;;;9.8;;
28455;SDS011;15682;56.742;38.866;2023-10-31T12:03:36;18.1;;;9.3;;
28455;SDS011;15682;56.742;38.866;2023-10-31T12:05:31;19.0;;;10.5;;
28455;SDS011;15682;56.742;38.866;2023-10-31T12:07:40;23.2;;;11.1;;
28455;SDS011;15682;56.742;38.866;2023-10-31T12:09:31;19.4;;;11.5;;